Terminal Aerodrome Forecast
Issued by NWS

Home | Current Version | Previous Version | Graphics & Text | Print | Product List | Glossary On
Versions: 1 2 3 4 5 6 7 8 9 10 11 12 13 14 15 16 17 18 19 20 21 22 23
000
FTUS43 KABR 242200 AAB
TAFMBG
TAF AMD
KMBG 242204Z 2422/2518 31015G25KT P6SM -RA OVC035
     FM250000 34016G25KT 4SM -RA BR OVC015
     FM250700 34013KT P6SM OVC015=

USA.gov is the U.S. government's official web portal to all federal, state and local government web resources and services.